Time;durP1;ratioP1;P1;durP2;ratioP2;P2;SDS_P1;SDS_P2;PMS_P1;PMS_P2;Temp;Humidity;BMP_temperature;BMP_pressure;BME280_temperature;BME280_humidity;BME280_pressure;Samples;Min_cycle;Max_cycle;Signal;HPM_P1;HPM_P2
2022/06/12 00:01:35;;;;;;;;;18.67;17.33;;;;;18.19;92.73;99858.13;6281057;20;2835782;-56
2022/06/12 00:04:04;;;;;;;;;21.50;20.00;;;;;18.35;91.25;99858.47;6313670;20;2838862;-53
2022/06/12 00:06:33;;;;;;;;;19.67;18.67;;;;;18.42;91.48;99867.78;6285559;20;3575277;-52
2022/06/12 00:09:02;;;;;;;;;20.33;20.33;;;;;18.38;90.63;99860.06;6278564;20;3566947;-55
2022/06/12 00:11:33;;;;;;;;;20.33;20.33;;;;;18.38;90.24;99866.34;6282193;20;3580425;-54
2022/06/12 00:14:05;;;;;;;;;18.67;18.67;;;;;18.46;89.25;99865.66;6281880;20;3574220;-54
2022/06/12 00:16:35;;;;;;;;;19.67;18.33;;;;;18.43;88.91;99863.19;6282349;20;3575268;-57
2022/06/12 00:19:04;;;;;;;;;19.00;17.50;;;;;18.32;89.20;99857.88;6278229;20;2824532;-55
2022/06/12 00:21:33;;;;;;;;;17.50;17.50;;;;;18.39;88.48;99859.03;6281001;20;2835737;-52
2022/06/12 00:24:12;;;;;;;;;23.67;19.33;;;;;18.27;89.06;99861.00;6280749;20;2838788;-53
2022/06/12 00:26:50;;;;;;;;;19.33;19.00;;;;;18.34;88.90;99850.44;6315665;20;3563896;-54
2022/06/12 00:29:27;;;;;;;;;19.50;19.50;;;;;18.34;89.26;99853.16;6276693;20;2841942;-51
2022/06/12 00:32:07;;;;;;;;;18.33;17.00;;;;;18.21;89.68;99843.41;6285550;20;3561706;-53
2022/06/12 00:34:48;;;;;;;;;20.00;19.00;;;;;18.26;89.62;99842.13;6312142;20;2823176;-53
2022/06/12 00:37:21;;;;;;;;;22.00;18.50;;;;;18.09;90.45;99838.22;6278998;20;2831628;-54
2022/06/12 00:39:55;;;;;;;;;21.33;18.33;;;;;18.05;90.96;99837.66;6280697;20;2835835;-53
2022/06/12 00:42:43;;;;;;;;;21.33;20.00;;;;;17.84;92.10;99834.16;6312445;20;2847340;-51
2022/06/12 00:45:38;;;;;;;;;23.00;21.67;;;;;17.87;91.52;99832.00;6313116;20;3585662;-55
2022/06/12 00:48:19;;;;;;;;;21.50;20.50;;;;;18.00;90.38;99829.06;6281420;20;2830033;-55
2022/06/12 00:51:17;;;;;;;;;17.67;17.67;;;;;17.82;90.65;99825.28;6283264;20;3558635;-53
2022/06/12 00:53:55;;;;;;;;;19.00;19.00;;;;;17.96;88.90;99822.19;6313728;20;3560686;-51
2022/06/12 00:56:31;;;;;;;;;16.67;16.67;;;;;17.85;88.67;99819.56;6311469;20;3564913;-54
2022/06/12 00:59:10;;;;;;;;;20.00;20.00;;;;;17.83;88.75;99824.28;6311584;20;3573250;-51
2022/06/12 01:01:50;;;;;;;;;22.00;19.00;;;;;17.78;89.16;99825.53;6276242;20;2704435;-54
2022/06/12 01:07:16;;;;;;;;;25.00;22.50;;;;;17.67;90.11;99820.19;6280625;20;2845194;-53
2022/06/12 01:09:49;;;;;;;;;18.00;17.00;;;;;17.75;89.18;99820.38;6276676;20;2824356;-54
2022/06/12 01:12:24;;;;;;;;;17.00;17.00;;;;;17.92;87.31;99815.31;6275622;20;2820090;-55
2022/06/12 01:15:09;;;;;;;;;12.00;12.00;;;;;17.90;87.40;99817.28;6277371;20;2798474;-50
2022/06/12 01:17:42;;;;;;;;;19.00;18.63;;;;;17.73;87.43;99816.94;6332325;20;3573159;-49
2022/06/12 01:20:24;;;;;;;;;21.50;16.50;;;;;17.71;86.95;99818.91;6275910;20;2829515;-55
2022/06/12 01:23:49;;;;;;;;;18.33;16.33;;;;;17.86;86.58;99805.00;6281510;20;3563761;-54
2022/06/12 01:27:01;;;;;;;;;20.00;19.50;;;;;17.59;87.89;99798.31;6308504;20;2833671;-53
2022/06/12 01:29:53;;;;;;;;;19.50;16.50;;;;;17.68;87.59;99812.91;6279721;20;2831490;-52
2022/06/12 01:32:43;;;;;;;;;19.50;18.50;;;;;17.59;88.17;99803.72;6275477;20;2487793;-51
2022/06/12 01:35:34;;;;;;;;;20.00;20.00;;;;;17.47;89.38;99800.22;6278244;20;2841929;-49
2022/06/12 01:38:46;;;;;;;;;24.00;22.67;;;;;17.35;90.60;99812.16;6272667;20;2500257;-52
2022/06/12 01:41:31;;;;;;;;;20.00;19.00;;;;;17.50;89.09;99807.25;6306765;20;2831538;-52
2022/06/12 01:44:15;;;;;;;;;19.33;18.33;;;;;17.50;88.95;99815.41;6281415;20;3559602;-54
2022/06/12 01:47:32;;;;;;;;;23.00;20.00;;;;;17.42;88.77;99799.78;6311530;20;2844103;-50
2022/06/12 01:50:10;;;;;;;;;18.00;17.00;;;;;17.34;88.56;99803.16;6284888;20;2831577;-51
2022/06/12 01:53:29;;;;;;;;;19.00;18.00;;;;;17.33;88.32;99797.91;6285658;20;2826327;-54
2022/06/12 01:56:32;;;;;;;;;19.00;18.50;;;;;17.28;88.21;99795.56;6281687;20;2834212;-55
2022/06/12 01:59:26;;;;;;;;;23.00;20.00;;;;;17.21;88.77;99794.38;6281501;20;2847121;-58
2022/06/12 02:02:29;;;;;;;;;19.50;19.50;;;;;17.34;88.19;99795.03;6281635;20;2834719;-61
2022/06/12 02:05:33;;;;;;;;;18.50;18.50;;;;;17.26;88.74;99797.56;6276607;20;2839838;-61
2022/06/12 02:08:39;;;;;;;;;19.50;19.50;;;;;17.03;88.76;99790.56;6277293;20;2845168;-61
2022/06/12 02:14:20;;;;;;;;;18.00;18.00;;;;;17.11;87.32;99802.50;6275926;20;3573146;-62
2022/06/12 02:16:55;;;;;;;;;16.33;14.33;;;;;16.95;86.22;99803.94;6278649;20;3537844;-61
2022/06/12 02:19:34;;;;;;;;;20.00;18.50;;;;;17.02;86.38;99805.13;6282327;20;2835785;-61
2022/06/12 02:22:18;;;;;;;;;15.67;15.67;;;;;17.11;85.41;99805.19;6283091;20;3558550;-61
2022/06/12 02:25:23;;;;;;;;;14.50;13.50;;;;;17.11;84.21;99798.91;6283009;20;2483704;-61
2022/06/12 02:28:01;;;;;;;;;14.00;14.00;;;;;17.15;82.98;99797.66;6282780;20;2808583;-62
2022/06/12 02:30:43;;;;;;;;;15.00;15.00;;;;;16.97;83.42;99800.09;6280243;20;2816915;-61
2022/06/12 02:33:25;;;;;;;;;17.67;15.00;;;;;16.98;83.76;99799.13;6279520;20;2816976;-58
2022/06/12 02:36:08;;;;;;;;;15.00;12.67;;;;;17.15;82.81;99802.22;6310473;20;3523252;-58
2022/06/12 02:39:12;;;;;;;;;14.00;14.00;;;;;17.21;81.64;99805.25;6280235;20;3528394;-57
2022/06/12 02:42:03;;;;;;;;;16.00;12.00;;;;;17.23;81.53;99810.53;6310793;20;2489920;-58
2022/06/12 02:44:45;;;;;;;;;14.00;14.00;;;;;17.18;81.35;99813.66;6280036;20;3522104;-58
2022/06/12 02:47:22;;;;;;;;;15.00;14.00;;;;;17.40;80.08;99819.91;6311793;20;3526311;-58
2022/06/12 02:49:54;;;;;;;;;14.00;14.00;;;;;17.26;80.39;99811.13;6278304;20;3539809;-56
2022/06/12 02:52:43;;;;;;;;;14.00;13.67;;;;;17.44;78.91;99816.78;6314306;20;2806605;-55
2022/06/12 02:56:18;;;;;;;;;12.50;12.50;;;;;17.48;78.43;99822.81;6314630;20;2800270;-58
2022/06/12 02:59:51;;;;;;;;;14.00;12.00;;;;;17.52;78.41;99810.69;6279080;20;3542980;-58
2022/06/12 03:02:58;;;;;;;;;13.00;13.00;;;;;17.55;77.84;99815.84;6277186;20;3529516;-58
2022/06/12 03:05:39;;;;;;;;;11.00;11.00;;;;;17.59;77.65;99814.59;6310227;20;3521188;-57
2022/06/12 03:08:19;;;;;;;;;11.67;11.67;;;;;17.68;76.70;99813.75;6311193;20;3522133;-58
2022/06/12 03:11:14;;;;;;;;;10.00;9.00;;;;;17.57;76.62;99807.59;6337588;20;2777358;-58
2022/06/12 03:13:44;;;;;;;;;12.00;12.00;;;;;17.69;76.23;99806.47;6286852;20;2802321;-58
2022/06/12 03:16:31;;;;;;;;;13.50;10.00;;;;;17.81;75.02;99818.13;6286629;20;2791981;-58
2022/06/12 03:19:17;;;;;;;;;13.00;11.00;;;;;17.85;74.84;99816.84;6283119;20;3523137;-58
2022/06/12 03:22:10;;;;;;;;;10.00;9.67;;;;;17.77;75.16;99818.38;6278188;20;3503450;-58
2022/06/12 03:25:08;;;;;;;;;9.67;9.67;;;;;17.80;75.81;99813.69;6311695;20;2783037;-59
2022/06/12 03:27:55;;;;;;;;;12.50;12.50;;;;;17.97;74.98;99823.91;6314682;20;2796146;-58
2022/06/12 03:30:46;;;;;;;;;10.00;10.00;;;;;17.81;75.89;99819.00;6288174;20;2783590;-59
2022/06/12 03:33:30;;;;;;;;;11.00;11.00;;;;;17.67;77.33;99822.06;6278806;20;3515897;-57
2022/06/12 03:36:29;;;;;;;;;14.00;13.00;;;;;17.63;77.69;99826.03;6311300;20;3526266;-58
2022/06/12 03:39:23;;;;;;;;;11.67;10.67;;;;;17.91;76.42;99832.63;6310981;20;3507566;-58
2022/06/12 03:42:10;;;;;;;;;13.00;13.00;;;;;17.95;77.02;99832.19;6309182;20;2800477;-58
2022/06/12 03:45:07;;;;;;;;;10.00;10.00;;;;;17.81;77.60;99826.28;6314863;20;2795031;-57
2022/06/12 03:47:59;;;;;;;;;10.00;10.00;;;;;17.82;77.31;99833.41;6315915;20;2779553;-58
2022/06/12 03:50:57;;;;;;;;;12.67;12.33;;;;;17.93;76.19;99838.75;6279017;20;3513794;-59
2022/06/12 03:53:53;;;;;;;;;11.00;9.00;;;;;18.13;75.43;99840.53;6318843;20;2773239;-59
2022/06/12 04:00:17;;;;;;;;;11.33;11.33;;;;;18.04;77.26;99838.66;6278652;20;2794066;-58
2022/06/12 04:03:13;;;;;;;;;13.00;11.50;;;;;18.37;75.04;99837.44;6315094;20;2786915;-59
2022/06/12 04:06:07;;;;;;;;;12.00;10.40;;;;;18.33;75.29;99837.88;6305503;20;2788919;-59
2022/06/12 04:08:44;;;;;;;;;12.00;11.00;;;;;18.30;75.89;99840.84;6283442;20;2790928;-58
2022/06/12 04:11:17;;;;;;;;;11.33;11.00;;;;;18.54;75.13;99845.91;6277446;20;3519035;-58
2022/06/12 04:13:49;;;;;;;;;12.67;12.67;;;;;18.46;76.76;99843.00;6313773;20;2801370;-58
2022/06/12 04:17:00;;;;;;;;;10.33;8.67;;;;;18.51;76.76;99844.34;6315525;20;2762860;-58
2022/06/12 04:19:31;;;;;;;;;10.67;9.67;;;;;18.81;74.34;99851.53;6306791;20;2771242;-57
2022/06/12 04:22:12;;;;;;;;;10.00;10.00;;;;;18.98;74.42;99858.09;6315862;20;2785704;-63
2022/06/12 04:24:59;;;;;;;;;9.33;9.33;;;;;18.91;75.04;99856.97;6279692;20;3484631;-58
2022/06/12 04:27:40;;;;;;;;;9.20;9.20;;;;;19.08;72.93;99858.94;6335137;20;2775373;-56
2022/06/12 04:30:27;;;;;;;;;9.00;9.00;;;;;19.19;72.51;99855.22;6302843;20;2752344;-63
2022/06/12 04:33:34;;;;;;;;;9.00;9.00;;;;;19.47;71.17;99855.31;6319620;20;2750308;-63
2022/06/12 04:36:05;;;;;;;;;8.40;8.40;;;;;19.40;70.73;99857.75;6309357;20;2758582;-63
2022/06/12 04:38:38;;;;;;;;;10.00;10.00;;;;;19.58;70.73;99862.44;6303656;20;2791953;-55
2022/06/12 04:41:08;;;;;;;;;11.33;10.00;;;;;19.68;70.11;99866.03;6280648;20;3514846;-58
2022/06/12 04:43:37;;;;;;;;;9.00;9.00;;;;;19.83;70.86;99860.97;6309553;20;2760711;-58
2022/06/12 04:46:05;;;;;;;;;8.33;8.33;;;;;19.82;70.10;99868.25;6312730;20;2752574;-59
2022/06/12 04:48:40;;;;;;;;;11.60;11.60;;;;;19.93;70.05;99870.81;6335749;20;2795137;-59
2022/06/12 04:51:11;;;;;;;;;11.00;10.00;;;;;20.05;68.98;99867.88;6276328;20;3508594;-59
2022/06/12 04:53:44;;;;;;;;;9.80;9.60;;;;;20.30;67.87;99872.66;6339066;20;2798245;-57
2022/06/12 04:56:15;;;;;;;;;10.00;10.00;;;;;20.29;70.14;99873.63;6286118;20;2786842;-58
2022/06/12 04:58:45;;;;;;;;;10.00;9.00;;;;;20.39;70.05;99870.84;6308815;20;2775401;-55
2022/06/12 05:01:14;;;;;;;;;9.20;9.20;;;;;20.52;68.87;99870.50;6305466;20;2783570;-57
2022/06/12 05:03:43;;;;;;;;;11.67;11.00;;;;;20.64;69.03;99874.72;6283142;20;2789924;-59
2022/06/12 05:06:15;;;;;;;;;9.00;8.33;;;;;20.89;67.16;99875.00;6310718;20;3474222;-58
2022/06/12 05:08:49;;;;;;;;;10.67;9.00;;;;;20.91;67.37;99872.97;6310001;20;2767038;-60
2022/06/12 05:11:18;;;;;;;;;7.60;7.60;;;;;21.09;65.57;99868.34;6332565;20;2745216;-59
2022/06/12 05:13:48;;;;;;;;;8.00;8.00;;;;;21.09;66.24;99872.94;6304880;20;2740912;-59
2022/06/12 05:16:47;;;;;;;;;12.20;9.40;;;;;21.18;65.25;99875.59;6335075;20;2786754;-59
2022/06/12 05:19:25;;;;;;;;;7.00;7.00;;;;;21.49;63.23;99888.84;6311794;20;2746146;-59
2022/06/12 05:21:55;;;;;;;;;10.00;10.00;;;;;21.68;63.30;99890.50;6341325;20;2778359;-59
2022/06/12 05:24:25;;;;;;;;;7.40;7.40;;;;;21.94;62.27;99893.22;6312166;20;2751298;-56
2022/06/12 05:26:55;;;;;;;;;8.00;8.00;;;;;21.92;61.32;99887.91;6307753;20;2637840;-59
2022/06/12 05:29:34;;;;;;;;;9.67;8.00;;;;;21.96;60.80;99888.44;6320357;20;2755564;-59
2022/06/12 05:32:05;;;;;;;;;9.00;8.33;;;;;21.95;59.48;99892.19;6312391;20;2760659;-58
2022/06/12 05:34:35;;;;;;;;;8.60;7.20;;;;;22.04;60.36;99899.41;6342282;20;2748607;-59
2022/06/12 05:37:07;;;;;;;;;7.00;7.00;;;;;22.37;60.57;99901.47;6340879;20;1914852;-58
2022/06/12 05:39:35;;;;;;;;;10.00;8.00;;;;;22.40;60.19;99904.72;6311873;20;2756500;-56
2022/06/12 05:42:05;;;;;;;;;10.00;10.00;;;;;22.57;58.10;99905.66;6319859;20;2788899;-54
2022/06/12 05:44:37;;;;;;;;;9.40;8.00;;;;;22.82;57.66;99913.91;6340570;20;2756502;-56
2022/06/12 05:47:07;;;;;;;;;10.33;9.00;;;;;22.82;58.34;99912.03;6283969;20;2775385;-56
2022/06/12 05:49:36;;;;;;;;;10.67;9.00;;;;;22.57;60.58;99914.72;6314219;20;2763836;-62
2022/06/12 05:52:07;;;;;;;;;8.00;8.00;;;;;22.25;59.23;99920.03;6315823;20;2736734;-56
2022/06/12 05:54:37;;;;;;;;;9.00;9.00;;;;;22.61;59.17;99917.09;6342485;20;2760883;-61
2022/06/12 05:57:07;;;;;;;;;7.20;7.20;;;;;23.27;57.61;99921.69;6308671;20;2748196;-62
2022/06/12 05:59:36;;;;;;;;;8.00;8.00;;;;;23.24;56.73;99927.50;6291559;20;2756496;-63
2022/06/12 06:02:06;;;;;;;;;7.60;7.60;;;;;23.63;56.08;99926.84;6340626;20;2742006;-63
2022/06/12 06:04:35;;;;;;;;;8.00;8.00;;;;;24.03;56.12;99938.78;6292803;20;2739914;-58
2022/06/12 06:07:04;;;;;;;;;6.67;6.67;;;;;24.21;55.49;99936.66;6324236;20;2732564;-63
2022/06/12 06:09:34;;;;;;;;;8.20;6.80;;;;;24.17;54.88;99943.56;6342332;20;2739850;-62
2022/06/12 06:12:03;;;;;;;;;8.00;7.67;;;;;23.85;54.43;99945.31;6285692;20;2739834;-63
2022/06/12 06:14:32;;;;;;;;;7.00;7.00;;;;;24.02;54.13;99945.31;6338044;20;2754510;-57
2022/06/12 06:17:06;;;;;;;;;6.40;6.00;;;;;24.10;53.85;99937.06;6310440;20;2737833;-52
2022/06/12 06:19:36;;;;;;;;;7.00;6.80;;;;;24.36;53.11;99950.53;6342004;20;2739861;-62
2022/06/12 06:22:05;;;;;;;;;8.00;7.60;;;;;23.96;52.73;99951.47;6309300;20;2741918;-62
2022/06/12 06:24:35;;;;;;;;;8.20;7.40;;;;;24.44;53.03;99949.63;6309678;20;2743087;-62
2022/06/12 06:27:04;;;;;;;;;7.67;7.67;;;;;24.61;52.93;99947.69;6286403;20;2756500;-61
2022/06/12 06:29:33;;;;;;;;;8.40;7.20;;;;;24.99;51.83;99954.19;6339559;20;2744123;-63
2022/06/12 06:32:07;;;;;;;;;7.80;7.80;;;;;25.06;51.51;99952.41;6310343;20;2752346;-63
2022/06/12 06:34:40;;;;;;;;;7.60;7.60;;;;;24.82;51.57;99944.31;6313598;20;2748629;-62
2022/06/12 06:37:12;;;;;;;;;8.00;8.00;;;;;25.40;49.97;99948.41;6284710;20;2752474;-61
2022/06/12 06:39:42;;;;;;;;;6.33;6.33;;;;;25.60;50.12;99943.28;6318132;20;2740910;-57
2022/06/12 06:42:11;;;;;;;;;5.67;5.67;;;;;25.37;49.90;99937.78;6320252;20;2741973;-60
2022/06/12 06:47:27;;;;;;;;;6.67;6.67;;;;;26.24;48.66;99940.06;6323000;20;2740866;-63
2022/06/12 06:49:55;;;;;;;;;5.00;5.00;;;;;25.96;46.92;99946.22;6318790;20;2733614;-63
2022/06/12 06:52:24;;;;;;;;;8.33;7.00;;;;;25.93;47.77;99946.59;6320488;20;2736692;-57
2022/06/12 06:54:53;;;;;;;;;8.33;7.00;;;;;25.89;48.00;99942.50;6330670;20;2731633;-61
2022/06/12 06:57:23;;;;;;;;;6.00;6.00;;;;;25.75;47.96;99948.78;6346030;20;2746217;-55
2022/06/12 06:59:52;;;;;;;;;5.00;5.00;;;;;25.93;46.73;99946.59;6311993;20;2745034;-60
2022/06/12 07:02:21;;;;;;;;;13.00;7.67;;;;;25.54;46.69;99944.00;6286170;20;2773279;-60
2022/06/12 07:04:50;;;;;;;;;5.40;5.40;;;;;25.40;47.50;99937.41;6343057;20;2738791;-63
2022/06/12 07:07:20;;;;;;;;;7.00;7.00;;;;;25.82;46.65;99947.00;6313444;20;2731519;-63
2022/06/12 07:09:48;;;;;;;;;7.00;6.00;;;;;25.91;47.46;99950.56;6322035;20;2739857;-59
2022/06/12 07:12:18;;;;;;;;;7.00;6.40;;;;;26.99;45.12;99944.47;6345619;20;2743084;-60
2022/06/12 07:14:48;;;;;;;;;6.20;6.20;;;;;26.63;44.52;99945.28;6313686;20;2739850;-59
2022/06/12 07:17:17;;;;;;;;;7.60;7.40;;;;;26.20;45.55;99942.34;6313919;20;2746292;-55
2022/06/12 07:19:46;;;;;;;;;7.67;7.67;;;;;27.20;43.60;99945.53;6288134;20;2750239;-61
2022/06/12 07:22:14;;;;;;;;;6.00;6.00;;;;;27.26;44.55;99951.13;6321854;20;2743082;-57
2022/06/12 07:24:43;;;;;;;;;9.00;9.00;;;;;27.73;44.36;99952.41;6317659;20;2735781;-51
2022/06/12 07:27:11;;;;;;;;;6.33;6.33;;;;;26.90;44.62;99953.88;6321254;20;2731906;-59
2022/06/12 07:29:42;;;;;;;;;6.80;6.80;;;;;27.65;44.29;99947.03;6341164;20;2737755;-59
2022/06/12 07:32:11;;;;;;;;;7.00;7.00;;;;;27.44;43.95;99953.44;6289295;20;2750323;-63
2022/06/12 07:34:39;;;;;;;;;6.00;6.00;;;;;27.68;44.39;99946.63;6321262;20;2759649;-53
2022/06/12 07:37:09;;;;;;;;;7.40;6.60;;;;;27.00;42.68;99945.31;6345282;20;2733638;-59
2022/06/12 07:39:38;;;;;;;;;6.67;6.67;;;;;27.63;41.81;99943.63;6288370;20;2741944;-60
2022/06/12 07:42:08;;;;;;;;;6.00;6.00;;;;;27.56;42.46;99946.31;6339159;20;2727417;-62
2022/06/12 07:44:38;;;;;;;;;6.40;6.40;;;;;27.36;42.11;99951.66;6312506;20;2739856;-60
2022/06/12 07:47:08;;;;;;;;;6.00;6.00;;;;;28.13;41.71;99946.38;6287640;20;2738385;-56
2022/06/12 07:49:37;;;;;;;;;5.67;5.67;;;;;27.77;43.02;99942.66;6318430;20;2740863;-59
2022/06/12 07:52:09;;;;;;;;;6.00;6.00;;;;;27.42;41.15;99949.16;6319148;20;2741919;-58
2022/06/12 07:54:40;;;;;;;;;7.00;7.00;;;;;27.78;42.77;99944.38;6342711;20;2737777;-57
2022/06/12 07:57:10;;;;;;;;;7.00;7.00;;;;;28.10;42.60;99949.53;6340927;20;2744014;-65
2022/06/12 07:59:38;;;;;;;;;6.33;6.00;;;;;28.06;39.58;99945.47;6296682;20;2742988;-59
2022/06/12 08:02:08;;;;;;;;;6.00;6.00;;;;;28.55;40.30;99939.00;6342850;20;2724248;-59
2022/06/12 08:04:38;;;;;;;;;4.60;4.60;;;;;27.93;40.41;99941.53;6343633;20;2741946;-50
2022/06/12 08:07:07;;;;;;;;;6.00;6.00;;;;;27.62;42.51;99941.94;6290300;20;2744136;-60
2022/06/12 08:09:35;;;;;;;;;5.00;5.00;;;;;27.20;41.56;99934.50;6314261;20;2741909;-60
2022/06/12 08:12:07;;;;;;;;;5.80;5.80;;;;;27.13;41.63;99928.91;6337521;20;2737058;-61
2022/06/12 08:14:35;;;;;;;;;5.67;5.67;;;;;27.51;41.07;99931.41;6279186;20;2740900;-64
2022/06/12 08:17:06;;;;;;;;;6.40;5.40;;;;;28.45;39.42;99934.69;6335527;20;2736879;-59
2022/06/12 08:22:22;;;;;;;;;5.00;5.00;;;;;28.42;40.15;99934.22;6311462;20;2741954;-58
2022/06/12 08:24:50;;;;;;;;;6.00;6.00;;;;;28.07;40.05;99937.00;6311600;20;2735737;-51
2022/06/12 08:27:19;;;;;;;;;3.00;3.00;;;;;28.28;38.18;99932.41;6334235;20;2734648;-63
2022/06/12 08:29:49;;;;;;;;;6.00;6.00;;;;;28.08;38.72;99933.16;6334964;20;2742054;-58
2022/06/12 08:32:21;;;;;;;;;19.00;19.00;;;;;28.63;38.36;99930.53;6272904;20;3363948;-61
2022/06/12 08:34:59;;;;;;;;;5.67;5.67;;;;;28.27;38.94;99927.97;6308056;20;2738882;-61
2022/06/12 08:37:35;;;;;;;;;7.00;6.00;;;;;27.97;39.66;99929.06;6308777;20;2746166;-59
2022/06/12 08:40:53;;;;;;;;;5.00;4.33;;;;;28.60;38.99;99930.94;6310400;20;2748174;-59
2022/06/12 08:43:57;;;;;;;;;6.00;6.00;;;;;28.23;38.24;99925.63;6307694;20;2735813;-60
2022/06/12 08:46:41;;;;;;;;;6.40;5.60;;;;;29.43;37.38;99934.34;6333453;20;2736733;-61
2022/06/12 08:49:53;;;;;;;;;6.67;5.00;;;;;29.41;37.63;99928.22;6280195;20;2738022;-60
2022/06/12 08:52:43;;;;;;;;;6.33;6.33;;;;;30.08;36.72;99933.75;6311518;20;2738156;-60
2022/06/12 08:55:34;;;;;;;;;6.00;6.00;;;;;28.98;36.86;99928.50;6323369;20;2741001;-60
2022/06/12 08:58:31;;;;;;;;;11.67;11.67;;;;;29.38;36.95;99936.06;6318232;20;2483607;-61
2022/06/12 09:01:01;;;;;;;;;6.67;5.00;;;;;29.54;37.82;99933.75;6317567;20;2738854;-59
2022/06/12 09:03:43;;;;;;;;;5.00;5.00;;;;;29.51;37.08;99938.84;6319922;20;2738841;-58
2022/06/12 09:06:48;;;;;;;;;6.00;6.00;;;;;28.90;38.11;99942.50;6322273;20;2746145;-63
2022/06/12 09:10:03;;;;;;;;;6.00;6.00;;;;;29.89;36.72;99946.56;6320651;20;2737895;-64
2022/06/12 09:13:23;;;;;;;;;6.00;6.00;;;;;29.60;36.07;99936.72;6320015;20;2741995;-60
2022/06/12 09:16:19;;;;;;;;;6.00;6.00;;;;;29.18;37.35;99934.13;6317385;20;2746095;-60
2022/06/12 09:19:10;;;;;;;;;6.00;6.00;;;;;28.18;37.81;99932.81;6319160;20;2735667;-61
2022/06/12 09:22:22;;;;;;;;;7.00;6.00;;;;;29.00;37.40;99931.91;6318354;20;2748321;-62
2022/06/12 09:25:17;;;;;;;;;6.00;6.00;;;;;28.60;38.29;99930.94;6326119;20;2746122;-55
2022/06/12 09:28:22;;;;;;;;;4.00;2.60;;;;;28.78;37.25;99927.59;6344982;20;2735669;-57
2022/06/12 09:31:14;;;;;;;;;8.00;7.00;;;;;28.08;39.02;99919.34;6297756;20;2730490;-59
2022/06/12 09:34:10;;;;;;;;;7.00;7.00;;;;;29.11;38.64;99916.66;6318697;20;2743990;-61
2022/06/12 09:36:51;;;;;;;;;7.67;6.00;;;;;29.16;36.07;99911.34;6317418;20;2742988;-60
2022/06/12 09:40:23;;;;;;;;;7.00;6.33;;;;;29.82;36.62;99916.09;6320120;20;2744037;-63
2022/06/12 09:43:11;;;;;;;;;8.67;7.67;;;;;29.91;37.57;99914.81;6316293;20;2758636;-58
2022/06/12 09:46:22;;;;;;;;;6.00;6.00;;;;;29.15;37.98;99906.91;6321255;20;2740895;-63
2022/06/12 09:49:33;;;;;;;;;8.00;7.00;;;;;29.65;38.07;99910.16;6322539;20;2744040;-63
2022/06/12 09:52:29;;;;;;;;;7.00;6.00;;;;;29.12;37.11;99906.44;6321136;20;2748219;-58
2022/06/12 09:55:22;;;;;;;;;8.33;8.33;;;;;29.90;36.91;99907.56;6318836;20;2730526;-63
2022/06/12 09:58:29;;;;;;;;;6.00;6.00;;;;;29.50;35.37;99902.00;6327643;20;2743110;-62
2022/06/12 10:01:17;;;;;;;;;6.00;6.00;;;;;30.42;33.85;99901.28;6339437;20;1851402;-61
2022/06/12 10:04:05;;;;;;;;;7.00;7.00;;;;;29.38;37.43;99895.41;6284903;20;2743045;-62
2022/06/12 10:06:50;;;;;;;;;6.33;6.33;;;;;30.35;36.80;99896.59;6316616;20;2733600;-59
2022/06/12 10:09:50;;;;;;;;;7.00;5.33;;;;;30.02;35.31;99885.59;6311264;20;2744029;-58
2022/06/12 10:12:33;;;;;;;;;7.00;5.67;;;;;29.81;34.62;99889.47;6314799;20;2730479;-57
2022/06/12 10:15:19;;;;;;;;;7.33;6.00;;;;;29.91;35.80;99881.59;6312366;20;2736721;-60
2022/06/12 10:18:20;;;;;;;;;5.00;5.00;;;;;30.08;35.24;99886.66;6306154;20;2750275;-60
2022/06/12 10:21:00;;;;;;;;;6.00;5.00;;;;;29.45;35.06;99879.66;6333907;20;2743070;-57
2022/06/12 10:23:29;;;;;;;;;6.33;6.33;;;;;29.81;35.26;99883.94;6278676;20;2732677;-61
2022/06/12 10:26:08;;;;;;;;;1.40;1.40;;;;;28.94;35.86;99876.59;6339138;20;2742514;-62
2022/06/12 10:28:38;;;;;;;;;5.67;5.67;;;;;28.81;35.65;99866.38;6279781;20;2738814;-58
2022/06/12 10:31:10;;;;;;;;;6.00;6.00;;;;;29.61;34.83;99866.47;6319655;20;2745046;-63
2022/06/12 10:33:58;;;;;;;;;5.67;5.67;;;;;29.84;34.13;99861.34;6314003;20;2741925;-58
2022/06/12 10:36:33;;;;;;;;;5.00;5.00;;;;;30.45;34.99;99867.59;6313212;20;2740881;-61
2022/06/12 10:39:22;;;;;;;;;6.00;6.00;;;;;30.69;35.42;99863.22;6313884;20;2739841;-59
2022/06/12 10:42:08;;;;;;;;;10.00;9.00;;;;;30.05;34.83;99864.94;6313697;20;2759650;-55
2022/06/12 10:44:45;;;;;;;;;8.00;7.00;;;;;30.77;35.28;99861.03;6309536;20;2746082;-54
2022/06/12 10:47:24;;;;;;;;;6.00;6.00;;;;;29.86;36.61;99859.22;6309517;20;2743746;-58
2022/06/12 10:50:23;;;;;;;;;12.33;10.67;;;;;29.87;34.81;99852.63;6303837;20;3510790;-60
2022/06/12 10:53:17;;;;;;;;;6.00;6.00;;;;;30.07;33.85;99855.34;6312317;20;2738811;-61
2022/06/12 10:56:45;;;;;;;;;6.20;5.40;;;;;29.26;34.57;99841.81;6335668;20;2744039;-59
2022/06/12 10:59:31;;;;;;;;;7.00;7.00;;;;;29.85;34.83;99849.22;6278550;20;2737778;-57
2022/06/12 11:02:48;;;;;;;;;6.67;6.33;;;;;30.02;32.72;99851.50;6308747;20;2734656;-49
2022/06/12 11:05:28;;;;;;;;;7.00;7.00;;;;;29.98;35.06;99845.56;6311354;20;2739865;-62
2022/06/12 11:08:27;;;;;;;;;10.00;10.00;;;;;29.64;32.64;99832.81;6313052;20;3507528;-51
2022/06/12 11:11:48;;;;;;;;;7.33;7.00;;;;;30.37;33.03;99847.38;6310696;20;2740921;-57
2022/06/12 11:15:14;;;;;;;;;6.33;6.33;;;;;29.94;33.24;99836.84;6312275;20;2738797;-64
2022/06/12 11:18:32;;;;;;;;;7.00;7.00;;;;;30.59;32.23;99833.19;6311846;20;2738216;-61
2022/06/12 11:21:56;;;;;;;;;6.67;6.00;;;;;30.83;32.70;99832.47;6316744;20;2745137;-60
2022/06/12 11:25:15;;;;;;;;;5.67;5.67;;;;;30.46;33.87;99824.94;6309903;20;2728884;-64
2022/06/12 11:28:37;;;;;;;;;4.67;4.67;;;;;29.79;33.65;99825.16;6317722;20;2728434;-61
2022/06/12 11:32:00;;;;;;;;;5.33;5.33;;;;;29.16;34.03;99813.72;6307640;20;2745105;-61
2022/06/12 11:34:44;;;;;;;;;6.00;6.00;;;;;29.62;35.80;99816.44;6311378;20;2737883;-61
2022/06/12 11:38:28;;;;;;;;;6.00;6.00;;;;;29.38;34.43;99817.09;6309676;20;2742051;-63
2022/06/12 11:41:36;;;;;;;;;18.00;17.33;;;;;29.92;33.44;99819.59;6311018;20;2829460;-59
2022/06/12 11:44:45;;;;;;;;;7.00;7.00;;;;;29.19;34.94;99807.75;6307160;20;2748720;-63
2022/06/12 11:47:55;;;;;;;;;6.00;6.00;;;;;29.53;34.28;99801.97;6309256;20;2734706;-59
2022/06/12 11:51:27;;;;;;;;;8.00;8.00;;;;;30.12;34.72;99810.34;6308242;20;2748176;-58
2022/06/12 11:54:58;;;;;;;;;6.00;6.00;;;;;29.37;33.96;99805.19;6311750;20;2737909;-59
2022/06/12 11:58:10;;;;;;;;;18.67;17.67;;;;;29.82;35.52;99802.59;6304564;20;2483803;-62
2022/06/12 12:01:10;;;;;;;;;8.00;6.00;;;;;29.90;34.75;99798.72;6317476;20;2738829;-61
2022/06/12 12:04:09;;;;;;;;;8.00;8.00;;;;;29.84;34.83;99796.84;6310254;20;2745063;-61
2022/06/12 12:07:00;;;;;;;;;6.33;6.33;;;;;30.03;34.38;99797.84;6311040;20;2738820;-59
2022/06/12 12:10:23;;;;;;;;;7.67;7.67;;;;;30.32;33.06;99799.22;6308051;20;2738800;-61
2022/06/12 12:13:22;;;;;;;;;8.67;7.00;;;;;29.74;35.11;99783.44;6311022;20;2735777;-58
2022/06/12 12:16:06;;;;;;;;;7.00;7.00;;;;;30.25;34.28;99785.41;6307470;20;2735715;-61
2022/06/12 12:18:53;;;;;;;;;7.00;7.00;;;;;29.61;35.36;99783.44;6310360;20;2735687;-61
2022/06/12 12:21:38;;;;;;;;;8.67;8.67;;;;;30.19;35.94;99777.94;6306278;20;2741949;-61
2022/06/12 12:24:23;;;;;;;;;8.67;6.33;;;;;30.08;35.50;99773.13;6306596;20;2739845;-61
2022/06/12 12:26:56;;;;;;;;;7.00;7.00;;;;;29.91;34.18;99773.59;6309701;20;2733683;-61
2022/06/12 12:29:31;;;;;;;;;5.67;5.67;;;;;29.81;34.63;99764.06;6308851;20;2741919;-61
2022/06/12 12:32:06;;;;;;;;;8.00;7.67;;;;;30.26;34.43;99767.72;6308592;20;2760117;-62
2022/06/12 12:34:35;;;;;;;;;6.00;6.00;;;;;30.21;35.65;99773.03;6311799;20;2744013;-64
2022/06/12 12:43:21;;;;;;;;;7.33;7.33;;;;;29.64;36.65;99758.09;6315417;20;2750345;-61
2022/06/12 12:46:06;;;;;;;;;8.67;7.67;;;;;30.46;35.35;99758.44;6308818;20;2744086;-61
2022/06/12 12:48:46;;;;;;;;;7.67;7.67;;;;;30.15;36.11;99751.78;6308972;20;2748271;-63
2022/06/12 12:51:36;;;;;;;;;9.67;8.67;;;;;30.32;35.67;99757.69;6313762;20;2760862;-61